Burwell, NE

2:28 PM CDT on July 06, 2015 (GMT -0500)
Sharp | | Change Station
CLOSE
Current Station
Airport
Location: Ord,
Elevation: 2070 ft
Nearby Weather Stations

Elev 2070 ft 41.62 °N, 98.95 °W | Updated 35 minutes ago

Overcast
Overcast
74 °F
Feels Like 74 °F
N
22
Wind Variable Wind from North
Gusts 28 mph

Today
High -- | Low -- °F
--% Chance of Precip.
Yesterday
High -- | Low -- °F
Precip. -- in
6:08 AM 9:14 PM
Waning Gibbous, 73% visible
Pressure 30.03 in
Visibility 3.0 miles
Clouds Few 3600 ft
Dew Point 56 °F
Humidity 53%
Rainfall 0.17 in
Snow Depth Not available.
UV 11 out of 12
Pollen 2.30 out of 12
Air Quality Not available.
Flu Activity Not available.
METAR KODX 061853Z AUTO 36019G24KT 3SM HZ FEW036 23/13 A3005 RMK AO2 PK WND 35026/1802 SLP167 T02330133

More Conditions Fewer Conditions

Pressure 30.03 in
Visibility 3.0 miles
Clouds Few 3600 ft
Dew Point 56 °F
Humidity 53%
Rainfall 0.17 in
Snow Depth Not available.
UV 11 out of 12
Pollen 2.30 out of 12
Air Quality Not available.
Flu Activity Not available.
METAR KODX 061853Z AUTO 36019G24KT 3SM HZ FEW036 23/13 A3005 RMK AO2 PK WND 35026/1802 SLP167 T02330133

More Conditions Fewer Conditions

10-Day Weather Forecast

×

Almanac

Astronomy

Jul. 06, 2015 Rise Set
Actual Time
Civil Twilight
Nautical Twilight
Astronomical Twilight
Moon
Length of Visible Light
Length of Day
Tomorrow will be .
, % of the Moon is Illuminated

Today's Extremes

State Highs State Lows

Community

WunderPhotos

Upload Photos

1,835,621 photos uploaded!

WunderBlogs® & News

Nearby

Air Quality

  Air Quality AQ Index Pollutant
Not available.

Snow Depth

Station Depth Elevation

Earthquake Activity

City Distance Mag. Time & Date
Minimum magnitude displayed is 2.5.

Coastal Water Temperatures

Place Temperature

Stations

Nearby Weather Stations

Station Location Temp. Windchill Dew Point Humidity Wind Precip. Elev Updated Type